< < Back
Terminal Aerodrome Forecast


Current Version              Previous Versions:   1  2  3  4  5  6  7  8  9  

Terminal Aerodrome Forecast

084
FTUS42 KFFC 051730
TAFCSG
TAF
KCSG 051730Z 0518/0618 32010G20KT 6SM -RA BR SCT012 OVC025
      TEMPO 0518/0521 4SM SHRA BR BKN009
     FM052100 33010G18KT 6SM -RA BR OVC015
     FM060300 35010KT P6SM BKN025
     FM061200 02008KT P6SM OVC020
     FM061500 05007KT P6SM BKN025=

Latest METAR

407
SAUS70 KWBC 061100
MTRCSG
METAR KCSG 061051Z AUTO 02009KT 10SM OVC016 M01/M04 A3036 RMK AO2 SLP282
T10061044


USA.gov is the U.S. government's official web portal to all federal, state and local government web resources and services.